sensor_id;sensor_type;location;lat;lon;timestamp;pressure;altitude;pressure_sealevel;temperature;humidity
19783;BME280;10051;40.294;-3.754;2023-07-13T00:01:31;94310.09;;;28.96;28.42
19783;BME280;10051;40.294;-3.754;2023-07-13T00:03:57;94303.19;;;28.91;28.54
19783;BME280;10051;40.294;-3.754;2023-07-13T00:06:23;94308.59;;;28.91;28.52
19783;BME280;10051;40.294;-3.754;2023-07-13T00:08:49;94312.81;;;28.96;28.80
19783;BME280;10051;40.294;-3.754;2023-07-13T00:11:16;94304.31;;;28.94;28.85
19783;BME280;10051;40.294;-3.754;2023-07-13T00:13:43;94310.94;;;28.86;28.91
19783;BME280;10051;40.294;-3.754;2023-07-13T00:16:10;94308.66;;;28.81;29.33
19783;BME280;10051;40.294;-3.754;2023-07-13T00:18:36;94288.97;;;28.62;29.50
19783;BME280;10051;40.294;-3.754;2023-07-13T00:21:03;94307.47;;;28.78;29.67
19783;BME280;10051;40.294;-3.754;2023-07-13T00:23:37;94305.94;;;28.81;29.71
19783;BME280;10051;40.294;-3.754;2023-07-13T00:26:04;94304.03;;;28.77;29.87
19783;BME280;10051;40.294;-3.754;2023-07-13T00:28:29;94305.16;;;28.80;29.87
19783;BME280;10051;40.294;-3.754;2023-07-13T00:30:55;94220.38;;;28.19;29.50
19783;BME280;10051;40.294;-3.754;2023-07-13T00:33:21;94231.53;;;28.29;29.93
19783;BME280;10051;40.294;-3.754;2023-07-13T00:35:48;94308.66;;;28.73;29.96
19783;BME280;10051;40.294;-3.754;2023-07-13T00:38:14;94307.13;;;28.65;30.29
19783;BME280;10051;40.294;-3.754;2023-07-13T00:40:40;94295.91;;;28.70;30.13
19783;BME280;10051;40.294;-3.754;2023-07-13T00:43:20;94309.47;;;28.59;30.40
19783;BME280;10051;40.294;-3.754;2023-07-13T00:48:20;94285.94;;;28.45;30.25
19783;BME280;10051;40.294;-3.754;2023-07-13T00:50:49;94297.47;;;28.64;30.50
19783;BME280;10051;40.294;-3.754;2023-07-13T00:53:17;94299.03;;;28.50;30.79
19783;BME280;10051;40.294;-3.754;2023-07-13T00:55:44;94235.81;;;28.04;30.72
19783;BME280;10051;40.294;-3.754;2023-07-13T00:58:10;94279.81;;;28.27;30.75
19783;BME280;10051;40.294;-3.754;2023-07-13T01:00:36;94307.56;;;28.49;31.10
19783;BME280;10051;40.294;-3.754;2023-07-13T01:03:03;94259.75;;;28.17;30.95
19783;BME280;10051;40.294;-3.754;2023-07-13T01:05:30;94303.72;;;28.39;31.01
19783;BME280;10051;40.294;-3.754;2023-07-13T01:07:58;94275.19;;;28.16;31.18
19783;BME280;10051;40.294;-3.754;2023-07-13T01:10:25;94304.91;;;28.38;31.56
19783;BME280;10051;40.294;-3.754;2023-07-13T01:12:51;94305.66;;;28.31;31.85
19783;BME280;10051;40.294;-3.754;2023-07-13T01:15:38;94262.06;;;28.04;31.63
19783;BME280;10051;40.294;-3.754;2023-07-13T01:18:16;94289.47;;;28.20;31.96
19783;BME280;10051;40.294;-3.754;2023-07-13T01:21:02;94296.78;;;28.34;32.16
19783;BME280;10051;40.294;-3.754;2023-07-13T01:23:29;94277.50;;;28.11;32.14
19783;BME280;10051;40.294;-3.754;2023-07-13T01:25:56;94255.13;;;28.03;32.04
19783;BME280;10051;40.294;-3.754;2023-07-13T01:28:23;94287.53;;;28.17;32.61
19783;BME280;10051;40.294;-3.754;2023-07-13T01:30:53;94267.88;;;27.99;32.15
19783;BME280;10051;40.294;-3.754;2023-07-13T01:33:19;94286.78;;;28.13;32.62
19783;BME280;10051;40.294;-3.754;2023-07-13T01:35:46;94292.94;;;28.17;32.33
19783;BME280;10051;40.294;-3.754;2023-07-13T01:38:17;94249.72;;;27.99;32.39
19783;BME280;10051;40.294;-3.754;2023-07-13T01:40:43;94231.97;;;27.91;32.15
19783;BME280;10051;40.294;-3.754;2023-07-13T01:43:09;94270.56;;;28.13;32.61
19783;BME280;10051;40.294;-3.754;2023-07-13T01:45:38;94239.72;;;27.85;32.41
19783;BME280;10051;40.294;-3.754;2023-07-13T01:48:04;94278.25;;;28.04;32.81
19783;BME280;10051;40.294;-3.754;2023-07-13T01:50:32;94294.88;;;28.13;32.90
19783;BME280;10051;40.294;-3.754;2023-07-13T01:52:58;94279.84;;;28.12;32.56
19783;BME280;10051;40.294;-3.754;2023-07-13T01:55:23;94296.81;;;28.24;32.53
19783;BME280;10051;40.294;-3.754;2023-07-13T01:57:49;94276.72;;;28.07;32.58
19783;BME280;10051;40.294;-3.754;2023-07-13T02:00:15;94296.81;;;28.05;32.95
19783;BME280;10051;40.294;-3.754;2023-07-13T02:02:41;94299.16;;;28.18;32.97
19783;BME280;10051;40.294;-3.754;2023-07-13T02:05:07;94301.44;;;28.12;32.63
19783;BME280;10051;40.294;-3.754;2023-07-13T02:07:32;94253.59;;;27.80;33.14
19783;BME280;10051;40.294;-3.754;2023-07-13T02:09:58;94302.97;;;28.06;33.15
19783;BME280;10051;40.294;-3.754;2023-07-13T02:12:24;94255.91;;;27.78;33.06
19783;BME280;10051;40.294;-3.754;2023-07-13T02:14:49;94304.16;;;27.98;33.28
19783;BME280;10051;40.294;-3.754;2023-07-13T02:17:15;94297.97;;;28.01;33.32
19783;BME280;10051;40.294;-3.754;2023-07-13T02:19:40;94291.41;;;27.98;33.37
19783;BME280;10051;40.294;-3.754;2023-07-13T02:22:06;94267.13;;;27.80;33.05
19783;BME280;10051;40.294;-3.754;2023-07-13T02:24:32;94271.34;;;27.74;33.41
19783;BME280;10051;40.294;-3.754;2023-07-13T02:26:57;94289.50;;;27.77;33.53
19783;BME280;10051;40.294;-3.754;2023-07-13T02:29:23;94252.09;;;27.50;34.01
19783;BME280;10051;40.294;-3.754;2023-07-13T02:31:48;94288.34;;;27.71;34.00
19783;BME280;10051;40.294;-3.754;2023-07-13T02:34:14;94272.91;;;27.68;33.59
19783;BME280;10051;40.294;-3.754;2023-07-13T02:36:39;94301.44;;;27.76;33.87
19783;BME280;10051;40.294;-3.754;2023-07-13T02:39:06;94256.69;;;27.46;33.93
19783;BME280;10051;40.294;-3.754;2023-07-13T02:41:32;94304.56;;;27.82;33.95
19783;BME280;10051;40.294;-3.754;2023-07-13T02:43:58;94300.31;;;27.73;33.99
19783;BME280;10051;40.294;-3.754;2023-07-13T02:46:36;94301.06;;;27.67;34.31
19783;BME280;10051;40.294;-3.754;2023-07-13T02:49:03;94278.69;;;27.59;34.01
19783;BME280;10051;40.294;-3.754;2023-07-13T02:51:29;94294.91;;;27.66;34.55
19783;BME280;10051;40.294;-3.754;2023-07-13T02:53:55;94307.59;;;27.44;35.16
19783;BME280;10051;40.294;-3.754;2023-07-13T02:56:23;94302.56;;;27.35;35.04
19783;BME280;10051;40.294;-3.754;2023-07-13T02:58:49;94284.38;;;27.07;35.01
19783;BME280;10051;40.294;-3.754;2023-07-13T03:01:15;94291.75;;;27.31;35.19
19783;BME280;10051;40.294;-3.754;2023-07-13T03:03:47;94306.41;;;27.41;35.18
19783;BME280;10051;40.294;-3.754;2023-07-13T03:06:14;94281.31;;;27.26;35.14
19783;BME280;10051;40.294;-3.754;2023-07-13T03:08:41;94272.44;;;27.22;35.27
19783;BME280;10051;40.294;-3.754;2023-07-13T03:11:10;94261.28;;;27.13;35.34
19783;BME280;10051;40.294;-3.754;2023-07-13T03:13:36;94297.53;;;27.41;35.04
19783;BME280;10051;40.294;-3.754;2023-07-13T03:16:02;94278.22;;;27.24;35.28
19783;BME280;10051;40.294;-3.754;2023-07-13T03:18:29;94262.81;;;27.14;35.25
19783;BME280;10051;40.294;-3.754;2023-07-13T03:20:54;94298.31;;;27.38;35.28
19783;BME280;10051;40.294;-3.754;2023-07-13T03:23:21;94299.50;;;27.48;34.94
19783;BME280;10051;40.294;-3.754;2023-07-13T03:25:47;94288.28;;;27.42;34.73
19783;BME280;10051;40.294;-3.754;2023-07-13T03:28:14;94298.72;;;27.47;34.90
19783;BME280;10051;40.294;-3.754;2023-07-13T03:30:40;94280.94;;;27.42;34.70
19783;BME280;10051;40.294;-3.754;2023-07-13T03:33:06;94265.91;;;27.30;34.29
19783;BME280;10051;40.294;-3.754;2023-07-13T03:35:31;94288.34;;;27.49;34.89
19783;BME280;10051;40.294;-3.754;2023-07-13T03:37:58;94281.41;;;27.48;34.68
19783;BME280;10051;40.294;-3.754;2023-07-13T03:40:25;94260.09;;;27.21;35.15
19783;BME280;10051;40.294;-3.754;2023-07-13T03:42:52;94290.63;;;27.36;34.95
19783;BME280;10051;40.294;-3.754;2023-07-13T03:45:17;94300.59;;;27.25;35.70
19783;BME280;10051;40.294;-3.754;2023-07-13T03:47:43;94282.47;;;27.11;35.56
19783;BME280;10051;40.294;-3.754;2023-07-13T03:50:09;94309.44;;;27.04;36.40
19783;BME280;10051;40.294;-3.754;2023-07-13T03:52:34;94321.25;;;26.77;36.75
19783;BME280;10051;40.294;-3.754;2023-07-13T03:55:00;94270.88;;;26.15;37.40
19783;BME280;10051;40.294;-3.754;2023-07-13T03:57:26;94323.63;;;26.16;37.35
19783;BME280;10051;40.294;-3.754;2023-07-13T03:59:52;94320.72;;;25.94;36.95
19783;BME280;10051;40.294;-3.754;2023-07-13T04:02:18;94326.34;;;25.74;36.58
19783;BME280;10051;40.294;-3.754;2023-07-13T04:04:43;94284.38;;;25.28;35.29
19783;BME280;10051;40.294;-3.754;2023-07-13T04:07:09;94302.69;;;25.15;34.42
19783;BME280;10051;40.294;-3.754;2023-07-13T04:09:35;94279.47;;;25.00;33.26
19783;BME280;10051;40.294;-3.754;2023-07-13T04:12:01;94293.97;;;25.26;32.61
19783;BME280;10051;40.294;-3.754;2023-07-13T04:14:27;94331.75;;;25.74;32.62
19783;BME280;10051;40.294;-3.754;2023-07-13T04:16:53;94291.50;;;25.47;31.99
19783;BME280;10051;40.294;-3.754;2023-07-13T04:19:20;94332.75;;;25.59;32.24
19783;BME280;10051;40.294;-3.754;2023-07-13T04:21:46;94326.22;;;25.60;32.19
19783;BME280;10051;40.294;-3.754;2023-07-13T04:24:11;94344.00;;;25.72;32.25
19783;BME280;10051;40.294;-3.754;2023-07-13T04:26:37;94313.56;;;25.64;32.23
19783;BME280;10051;40.294;-3.754;2023-07-13T04:29:03;94307.34;;;25.56;31.97
19783;BME280;10051;40.294;-3.754;2023-07-13T04:31:30;94363.84;;;25.97;32.07
19783;BME280;10051;40.294;-3.754;2023-07-13T04:33:56;94306.63;;;25.63;32.21
19783;BME280;10051;40.294;-3.754;2023-07-13T04:36:21;94323.66;;;25.74;32.23
19783;BME280;10051;40.294;-3.754;2023-07-13T04:38:47;94365.06;;;26.04;32.55
19783;BME280;10051;40.294;-3.754;2023-07-13T04:41:15;94315.59;;;25.74;32.60
19783;BME280;10051;40.294;-3.754;2023-07-13T04:43:41;94334.50;;;25.85;32.25
19783;BME280;10051;40.294;-3.754;2023-07-13T04:46:08;94365.66;;;26.27;32.21
19783;BME280;10051;40.294;-3.754;2023-07-13T04:48:35;94326.16;;;26.01;32.67
19783;BME280;10051;40.294;-3.754;2023-07-13T04:51:01;94338.91;;;26.08;32.57
19783;BME280;10051;40.294;-3.754;2023-07-13T04:53:27;94361.00;;;26.24;32.68
19783;BME280;10051;40.294;-3.754;2023-07-13T04:55:53;94344.66;;;26.03;33.00
19783;BME280;10051;40.294;-3.754;2023-07-13T04:58:21;94373.94;;;26.08;33.41
19783;BME280;10051;40.294;-3.754;2023-07-13T05:00:47;94362.31;;;26.00;33.62
19783;BME280;10051;40.294;-3.754;2023-07-13T05:03:12;94369.59;;;25.96;34.42
19783;BME280;10051;40.294;-3.754;2023-07-13T05:05:38;94382.66;;;25.94;34.63
19783;BME280;10051;40.294;-3.754;2023-07-13T05:08:04;94378.56;;;26.07;34.83
19783;BME280;10051;40.294;-3.754;2023-07-13T05:10:29;94351.78;;;25.80;35.08
19783;BME280;10051;40.294;-3.754;2023-07-13T05:12:55;94358.66;;;25.74;35.60
19783;BME280;10051;40.294;-3.754;2023-07-13T05:15:22;94385.66;;;25.81;36.01
19783;BME280;10051;40.294;-3.754;2023-07-13T05:17:48;94333.56;;;25.63;35.73
19783;BME280;10051;40.294;-3.754;2023-07-13T05:20:15;94379.63;;;25.99;35.71
19783;BME280;10051;40.294;-3.754;2023-07-13T05:22:41;94403.16;;;26.06;35.85
19783;BME280;10051;40.294;-3.754;2023-07-13T05:25:07;94376.94;;;25.99;35.84
19783;BME280;10051;40.294;-3.754;2023-07-13T05:27:34;94398.13;;;26.01;36.31
19783;BME280;10051;40.294;-3.754;2023-07-13T05:30:00;94389.66;;;25.98;36.88
19783;BME280;10051;40.294;-3.754;2023-07-13T05:32:28;94351.97;;;25.57;37.39
19783;BME280;10051;40.294;-3.754;2023-07-13T05:34:54;94368.41;;;25.48;38.00
19783;BME280;10051;40.294;-3.754;2023-07-13T05:37:19;94378.13;;;25.26;39.05
19783;BME280;10051;40.294;-3.754;2023-07-13T05:39:45;94396.13;;;25.52;38.95
19783;BME280;10051;40.294;-3.754;2023-07-13T05:42:11;94394.25;;;25.57;38.78
19783;BME280;10051;40.294;-3.754;2023-07-13T05:44:36;94399.38;;;25.69;38.93
19783;BME280;10051;40.294;-3.754;2023-07-13T05:47:02;94383.00;;;25.47;39.47
19783;BME280;10051;40.294;-3.754;2023-07-13T05:49:29;94405.69;;;25.88;39.10
19783;BME280;10051;40.294;-3.754;2023-07-13T05:51:56;94370.44;;;25.59;39.28
19783;BME280;10051;40.294;-3.754;2023-07-13T05:54:21;94353.47;;;25.54;39.35
19783;BME280;10051;40.294;-3.754;2023-07-13T05:56:47;94375.97;;;25.39;40.17
19783;BME280;10051;40.294;-3.754;2023-07-13T05:59:12;94391.22;;;25.62;40.06
19783;BME280;10051;40.294;-3.754;2023-07-13T06:01:38;94407.66;;;25.91;40.13
19783;BME280;10051;40.294;-3.754;2023-07-13T06:04:04;94416.28;;;26.07;40.18
19783;BME280;10051;40.294;-3.754;2023-07-13T06:06:30;94400.19;;;26.15;39.33
19783;BME280;10051;40.294;-3.754;2023-07-13T06:08:55;94411.19;;;26.43;38.86
19783;BME280;10051;40.294;-3.754;2023-07-13T06:11:23;94388.47;;;26.45;38.65
19783;BME280;10051;40.294;-3.754;2023-07-13T06:13:50;94400.59;;;26.80;37.84
19783;BME280;10051;40.294;-3.754;2023-07-13T06:16:16;94403.81;;;26.96;37.12
19783;BME280;10051;40.294;-3.754;2023-07-13T06:18:42;94398.53;;;27.22;36.92
19783;BME280;10051;40.294;-3.754;2023-07-13T06:21:16;94431.09;;;27.69;36.20
19783;BME280;10051;40.294;-3.754;2023-07-13T06:23:43;94435.75;;;27.86;36.04
19783;BME280;10051;40.294;-3.754;2023-07-13T06:26:09;94435.75;;;27.79;36.45
19783;BME280;10051;40.294;-3.754;2023-07-13T06:28:36;94436.84;;;27.56;36.97
19783;BME280;10051;40.294;-3.754;2023-07-13T06:31:04;94404.84;;;27.62;36.18
19783;BME280;10051;40.294;-3.754;2023-07-13T06:33:29;94408.34;;;27.88;36.29
19783;BME280;10051;40.294;-3.754;2023-07-13T06:35:55;94442.72;;;27.87;36.99
19783;BME280;10051;40.294;-3.754;2023-07-13T06:38:21;94445.81;;;28.00;36.23
19783;BME280;10051;40.294;-3.754;2023-07-13T06:40:47;94440.44;;;28.18;36.03
19783;BME280;10051;40.294;-3.754;2023-07-13T06:43:12;94456.63;;;28.11;36.02
19783;BME280;10051;40.294;-3.754;2023-07-13T06:45:44;94455.50;;;28.19;35.73
19783;BME280;10051;40.294;-3.754;2023-07-13T06:48:15;94450.47;;;28.32;35.65
19783;BME280;10051;40.294;-3.754;2023-07-13T06:50:42;94456.59;;;28.04;36.08
19783;BME280;10051;40.294;-3.754;2023-07-13T06:53:09;94458.22;;;28.16;35.79
19783;BME280;10051;40.294;-3.754;2023-07-13T06:55:35;94455.91;;;28.29;36.05
19783;BME280;10051;40.294;-3.754;2023-07-13T06:58:00;94418.41;;;28.05;35.16
19783;BME280;10051;40.294;-3.754;2023-07-13T07:00:26;94436.59;;;28.38;35.22
19783;BME280;10051;40.294;-3.754;2023-07-13T07:02:51;94422.69;;;28.17;36.51
19783;BME280;10051;40.294;-3.754;2023-07-13T07:05:17;94440.81;;;28.13;35.91
19783;BME280;10051;40.294;-3.754;2023-07-13T07:07:43;94453.59;;;28.38;35.98
19783;BME280;10051;40.294;-3.754;2023-07-13T07:10:08;94457.44;;;28.55;35.79
19783;BME280;10051;40.294;-3.754;2023-07-13T07:12:34;94408.75;;;28.08;35.88
19783;BME280;10051;40.294;-3.754;2023-07-13T07:14:59;94442.00;;;28.19;35.66
19783;BME280;10051;40.294;-3.754;2023-07-13T07:17:25;94470.59;;;28.35;35.67
19783;BME280;10051;40.294;-3.754;2023-07-13T07:19:52;94464.41;;;28.31;35.65
19783;BME280;10051;40.294;-3.754;2023-07-13T07:22:20;94436.53;;;27.94;36.83
19783;BME280;10051;40.294;-3.754;2023-07-13T07:24:45;94436.16;;;27.96;35.35
19783;BME280;10051;40.294;-3.754;2023-07-13T07:27:11;94476.38;;;28.37;35.46
19783;BME280;10051;40.294;-3.754;2023-07-13T07:29:37;94460.16;;;28.23;35.97
19783;BME280;10051;40.294;-3.754;2023-07-13T07:32:02;94482.53;;;28.48;35.66
19783;BME280;10051;40.294;-3.754;2023-07-13T07:34:28;94474.44;;;28.56;34.96
19783;BME280;10051;40.294;-3.754;2023-07-13T07:36:54;94487.56;;;29.01;34.85
19783;BME280;10051;40.294;-3.754;2023-07-13T07:39:19;94457.81;;;28.54;35.96
19783;BME280;10051;40.294;-3.754;2023-07-13T07:41:45;94487.19;;;28.88;35.77
19783;BME280;10051;40.294;-3.754;2023-07-13T07:44:11;94475.53;;;29.20;34.74
19783;BME280;10051;40.294;-3.754;2023-07-13T07:46:36;94498.16;;;29.77;33.95
19783;BME280;10051;40.294;-3.754;2023-07-13T07:49:02;94470.63;;;29.82;33.98
19783;BME280;10051;40.294;-3.754;2023-07-13T07:51:27;94452.50;;;29.75;33.33
19783;BME280;10051;40.294;-3.754;2023-07-13T07:53:53;94447.22;;;29.43;33.40
19783;BME280;10051;40.294;-3.754;2023-07-13T07:56:19;94393.56;;;29.08;34.23
19783;BME280;10051;40.294;-3.754;2023-07-13T07:58:44;94396.31;;;29.01;33.84
19783;BME280;10051;40.294;-3.754;2023-07-13T08:01:10;94491.09;;;29.94;34.05
19783;BME280;10051;40.294;-3.754;2023-07-13T08:03:35;94436.59;;;29.77;32.48
19783;BME280;10051;40.294;-3.754;2023-07-13T08:06:02;94485.31;;;29.88;34.04
19783;BME280;10051;40.294;-3.754;2023-07-13T08:08:27;94484.47;;;30.06;34.03
19783;BME280;10051;40.294;-3.754;2023-07-13T08:10:53;94488.44;;;29.83;33.11
19783;BME280;10051;40.294;-3.754;2023-07-13T08:13:19;94442.34;;;29.90;32.91
19783;BME280;10051;40.294;-3.754;2023-07-13T08:15:46;94481.50;;;30.42;33.01
19783;BME280;10051;40.294;-3.754;2023-07-13T08:18:12;94491.88;;;30.58;33.11
19783;BME280;10051;40.294;-3.754;2023-07-13T08:20:40;94488.41;;;30.58;32.91
19783;BME280;10051;40.294;-3.754;2023-07-13T08:23:07;94446.28;;;30.38;32.72
19783;BME280;10051;40.294;-3.754;2023-07-13T08:25:34;94455.69;;;30.72;31.49
19783;BME280;10051;40.294;-3.754;2023-07-13T08:28:00;94487.16;;;31.08;30.90
19783;BME280;10051;40.294;-3.754;2023-07-13T08:30:26;94488.53;;;31.27;30.79
19783;BME280;10051;40.294;-3.754;2023-07-13T08:32:53;94420.88;;;30.67;30.86
19783;BME280;10051;40.294;-3.754;2023-07-13T08:35:18;94459.31;;;31.00;31.07
19783;BME280;10051;40.294;-3.754;2023-07-13T08:37:44;94486.31;;;31.14;31.28
19783;BME280;10051;40.294;-3.754;2023-07-13T08:40:13;94488.66;;;31.16;31.64
19783;BME280;10051;40.294;-3.754;2023-07-13T08:45:07;94484.84;;;31.06;31.29
19783;BME280;10051;40.294;-3.754;2023-07-13T08:47:40;94453.38;;;31.12;30.92
19783;BME280;10051;40.294;-3.754;2023-07-13T08:50:14;94439.34;;;30.79;29.97
19783;BME280;10051;40.294;-3.754;2023-07-13T08:52:41;94485.81;;;31.27;29.84
19783;BME280;10051;40.294;-3.754;2023-07-13T08:55:21;94480.81;;;31.25;30.46
19783;BME280;10051;40.294;-3.754;2023-07-13T08:57:56;94476.13;;;31.26;30.41
19783;BME280;10051;40.294;-3.754;2023-07-13T09:00:34;94469.09;;;31.32;30.22
19783;BME280;10051;40.294;-3.754;2023-07-13T09:03:03;94423.31;;;30.96;30.16
19783;BME280;10051;40.294;-3.754;2023-07-13T09:05:38;94437.56;;;31.04;30.11
19783;BME280;10051;40.294;-3.754;2023-07-13T09:08:32;94472.84;;;31.42;29.72
19783;BME280;10051;40.294;-3.754;2023-07-13T09:14:00;94476.66;;;31.48;29.40
19783;BME280;10051;40.294;-3.754;2023-07-13T09:16:28;94442.66;;;31.36;28.80
19783;BME280;10051;40.294;-3.754;2023-07-13T09:18:56;94461.53;;;31.47;29.28
19783;BME280;10051;40.294;-3.754;2023-07-13T09:21:29;94471.34;;;31.37;29.20
19783;BME280;10051;40.294;-3.754;2023-07-13T09:24:13;94453.72;;;31.53;29.15
19783;BME280;10051;40.294;-3.754;2023-07-13T09:26:47;94427.91;;;31.37;29.06
19783;BME280;10051;40.294;-3.754;2023-07-13T09:29:29;94472.16;;;31.69;30.19
19783;BME280;10051;40.294;-3.754;2023-07-13T09:32:02;94475.38;;;31.91;29.38
19783;BME280;10051;40.294;-3.754;2023-07-13T09:34:29;94464.69;;;32.04;29.15
19783;BME280;10051;40.294;-3.754;2023-07-13T09:36:58;94460.16;;;32.21;28.85
19783;BME280;10051;40.294;-3.754;2023-07-13T09:39:27;94466.91;;;32.40;28.68
19783;BME280;10051;40.294;-3.754;2023-07-13T09:42:19;94467.69;;;32.41;28.65
19783;BME280;10051;40.294;-3.754;2023-07-13T09:45:01;94436.13;;;31.92;28.27
19783;BME280;10051;40.294;-3.754;2023-07-13T09:47:33;94474.13;;;32.23;26.68
19783;BME280;10051;40.294;-3.754;2023-07-13T09:50:08;94470.34;;;32.17;27.08
19783;BME280;10051;40.294;-3.754;2023-07-13T09:52:46;94469.50;;;32.20;27.33
19783;BME280;10051;40.294;-3.754;2023-07-13T09:57:51;94455.66;;;32.11;27.02
19783;BME280;10051;40.294;-3.754;2023-07-13T10:00:26;94455.56;;;32.18;26.49
19783;BME280;10051;40.294;-3.754;2023-07-13T10:03:14;94465.78;;;32.61;26.39
19783;BME280;10051;40.294;-3.754;2023-07-13T10:05:43;94474.47;;;32.53;28.00
19783;BME280;10051;40.294;-3.754;2023-07-13T10:08:29;94436.94;;;32.44;26.29
19783;BME280;10051;40.294;-3.754;2023-07-13T10:11:18;94460.94;;;32.73;26.55
19783;BME280;10051;40.294;-3.754;2023-07-13T10:13:55;94445.22;;;32.84;25.99
19783;BME280;10051;40.294;-3.754;2023-07-13T10:16:24;94425.53;;;32.97;26.45
19783;BME280;10051;40.294;-3.754;2023-07-13T10:18:56;94432.09;;;33.19;25.70
19783;BME280;10051;40.294;-3.754;2023-07-13T10:21:27;94420.84;;;33.37;25.14
19783;BME280;10051;40.294;-3.754;2023-07-13T10:23:55;94434.19;;;33.72;24.79
19783;BME280;10051;40.294;-3.754;2023-07-13T10:26:33;94458.94;;;33.98;24.90
19783;BME280;10051;40.294;-3.754;2023-07-13T10:29:07;94447.19;;;34.01;24.44
19783;BME280;10051;40.294;-3.754;2023-07-13T10:31:36;94454.53;;;34.04;24.71
19783;BME280;10051;40.294;-3.754;2023-07-13T10:34:03;94423.59;;;33.94;24.68
19783;BME280;10051;40.294;-3.754;2023-07-13T10:36:40;94432.56;;;34.12;24.63
19783;BME280;10051;40.294;-3.754;2023-07-13T10:39:23;94447.66;;;34.33;23.85
19783;BME280;10051;40.294;-3.754;2023-07-13T10:44:28;94445.31;;;34.31;23.93
19783;BME280;10051;40.294;-3.754;2023-07-13T10:47:06;94423.19;;;34.13;23.54
19783;BME280;10051;40.294;-3.754;2023-07-13T10:49:35;94427.44;;;34.14;24.07
19783;BME280;10051;40.294;-3.754;2023-07-13T10:52:02;94454.63;;;34.34;23.40
19783;BME280;10051;40.294;-3.754;2023-07-13T10:54:34;94374.22;;;33.72;22.98
19783;BME280;10051;40.294;-3.754;2023-07-13T10:57:16;94411.75;;;34.01;23.80
19783;BME280;10051;40.294;-3.754;2023-07-13T11:00:30;94422.66;;;34.18;23.87
19783;BME280;10051;40.294;-3.754;2023-07-13T11:02:30;94414.38;;;34.05;23.75
19783;BME280;10051;40.294;-3.754;2023-07-13T11:04:56;94452.75;;;34.14;23.38
19783;BME280;10051;40.294;-3.754;2023-07-13T11:07:29;94444.50;;;34.18;22.96
19783;BME280;10051;40.294;-3.754;2023-07-13T11:10:02;94429.53;;;34.06;22.65
19783;BME280;10051;40.294;-3.754;2023-07-13T11:12:50;94435.78;;;34.06;22.88
19783;BME280;10051;40.294;-3.754;2023-07-13T11:15:29;94432.53;;;33.95;23.92
19783;BME280;10051;40.294;-3.754;2023-07-13T11:17:56;94435.78;;;34.06;22.76
19783;BME280;10051;40.294;-3.754;2023-07-13T11:20:35;94447.44;;;34.07;23.23
19783;BME280;10051;40.294;-3.754;2023-07-13T11:25:39;94427.53;;;33.90;22.73
19783;BME280;10051;40.294;-3.754;2023-07-13T11:33:04;94408.81;;;33.92;22.62
19783;BME280;10051;40.294;-3.754;2023-07-13T11:35:36;94379.81;;;33.65;22.84
19783;BME280;10051;40.294;-3.754;2023-07-13T11:38:13;94397.47;;;33.77;22.74
19783;BME280;10051;40.294;-3.754;2023-07-13T11:40:41;94413.56;;;33.88;23.09
19783;BME280;10051;40.294;-3.754;2023-07-13T11:43:10;94425.63;;;34.07;23.66
19783;BME280;10051;40.294;-3.754;2023-07-13T11:45:37;94396.41;;;34.07;22.51
19783;BME280;10051;40.294;-3.754;2023-07-13T11:48:03;94370.50;;;33.99;21.96
19783;BME280;10051;40.294;-3.754;2023-07-13T11:50:29;94377.47;;;34.00;22.80
19783;BME280;10051;40.294;-3.754;2023-07-13T11:52:55;94384.66;;;34.10;22.03
19783;BME280;10051;40.294;-3.754;2023-07-13T11:55:22;94397.75;;;34.32;22.16
19783;BME280;10051;40.294;-3.754;2023-07-13T11:57:53;94414.16;;;34.49;21.56
19783;BME280;10051;40.294;-3.754;2023-07-13T12:00:23;94410.56;;;34.52;21.17
19783;BME280;10051;40.294;-3.754;2023-07-13T12:02:55;94406.63;;;34.53;22.04
19783;BME280;10051;40.294;-3.754;2023-07-13T12:05:21;94313.47;;;34.05;21.50
19783;BME280;10051;40.294;-3.754;2023-07-13T12:07:49;94339.44;;;34.26;20.86
19783;BME280;10051;40.294;-3.754;2023-07-13T12:10:25;94405.59;;;34.63;20.96
19783;BME280;10051;40.294;-3.754;2023-07-13T12:12:54;94400.47;;;34.65;21.11
19783;BME280;10051;40.294;-3.754;2023-07-13T12:15:21;94367.22;;;34.37;20.86
19783;BME280;10051;40.294;-3.754;2023-07-13T12:17:48;94395.78;;;34.49;21.04
19783;BME280;10051;40.294;-3.754;2023-07-13T12:20:21;94354.94;;;34.29;21.11
19783;BME280;10051;40.294;-3.754;2023-07-13T12:22:50;94374.75;;;34.50;21.34
19783;BME280;10051;40.294;-3.754;2023-07-13T12:25:17;94363.03;;;34.49;20.79
19783;BME280;10051;40.294;-3.754;2023-07-13T12:27:47;94382.69;;;34.74;21.17
19783;BME280;10051;40.294;-3.754;2023-07-13T12:30:32;94389.31;;;34.89;20.62
19783;BME280;10051;40.294;-3.754;2023-07-13T12:33:11;94391.53;;;34.94;20.89
19783;BME280;10051;40.294;-3.754;2023-07-13T12:35:48;94392.69;;;35.10;20.84
19783;BME280;10051;40.294;-3.754;2023-07-13T12:38:16;94386.91;;;35.21;21.12
19783;BME280;10051;40.294;-3.754;2023-07-13T12:40:44;94392.28;;;35.24;20.70
19783;BME280;10051;40.294;-3.754;2023-07-13T12:43:13;94389.53;;;35.24;20.97
19783;BME280;10051;40.294;-3.754;2023-07-13T12:46:04;94362.94;;;35.12;20.98
19783;BME280;10051;40.294;-3.754;2023-07-13T12:48:38;94384.19;;;35.34;21.39
19783;BME280;10051;40.294;-3.754;2023-07-13T12:51:10;94372.53;;;35.46;20.77
19783;BME280;10051;40.294;-3.754;2023-07-13T12:53:42;94364.75;;;35.44;20.83
19783;BME280;10051;40.294;-3.754;2023-07-13T12:56:21;94361.09;;;35.51;20.92
19783;BME280;10051;40.294;-3.754;2023-07-13T12:58:49;94344.78;;;35.48;20.91
19783;BME280;10051;40.294;-3.754;2023-07-13T13:01:21;94340.63;;;35.56;20.77
19783;BME280;10051;40.294;-3.754;2023-07-13T13:03:49;94354.84;;;35.51;20.59
19783;BME280;10051;40.294;-3.754;2023-07-13T13:08:46;94329.75;;;35.26;21.05
19783;BME280;10051;40.294;-3.754;2023-07-13T13:11:17;94350.78;;;35.55;20.56
19783;BME280;10051;40.294;-3.754;2023-07-13T13:13:43;94352.09;;;35.64;20.12
19783;BME280;10051;40.294;-3.754;2023-07-13T13:16:14;94357.25;;;35.75;20.27
19783;BME280;10051;40.294;-3.754;2023-07-13T13:18:42;94352.88;;;35.77;20.14
19783;BME280;10051;40.294;-3.754;2023-07-13T13:21:09;94322.13;;;35.73;19.55